createdAt,value
2022-09-15T00:00:28.840Z,13.00
2022-09-15T00:03:18.861Z,13.00
2022-09-15T00:06:08.880Z,13.00
2022-09-15T00:08:58.170Z,13.00
2022-09-15T00:11:46.251Z,13.00
2022-09-15T00:14:34.279Z,13.00
2022-09-15T00:17:22.396Z,13.00
2022-09-15T00:20:12.263Z,13.00
2022-09-15T00:23:00.323Z,13.00
2022-09-15T00:25:49.871Z,12.90
2022-09-15T00:28:39.013Z,12.90
2022-09-15T00:31:28.987Z,12.90
2022-09-15T00:34:17.211Z,12.90
2022-09-15T00:37:07.295Z,12.80
2022-09-15T00:39:55.462Z,12.80
2022-09-15T00:42:43.593Z,12.70
2022-09-15T00:45:31.769Z,12.70
2022-09-15T00:48:23.220Z,12.70
2022-09-15T00:51:14.927Z,12.60
2022-09-15T00:54:08.096Z,12.70
2022-09-15T00:57:00.470Z,12.60
2022-09-15T00:59:49.581Z,12.60
2022-09-15T01:02:38.956Z,12.40
2022-09-15T01:05:32.708Z,12.40
2022-09-15T01:08:29.534Z,12.40
2022-09-15T01:11:19.371Z,12.30
2022-09-15T01:14:07.452Z,12.30
2022-09-15T01:17:01.704Z,12.30
2022-09-15T01:20:35.244Z,12.20
2022-09-15T01:23:52.705Z,12.30
2022-09-15T01:26:57.866Z,12.20
2022-09-15T01:30:06.849Z,12.30
2022-09-15T01:33:09.634Z,12.30
2022-09-15T01:36:04.804Z,12.40
2022-09-15T01:39:00.927Z,12.50
2022-09-15T01:41:51.662Z,12.50
2022-09-15T01:44:43.356Z,12.20
2022-09-15T01:47:34.482Z,12.50
2022-09-15T01:50:27.473Z,12.50
2022-09-15T01:53:21.424Z,12.30
2022-09-15T01:56:11.619Z,12.30
2022-09-15T01:59:00.037Z,12.30
2022-09-15T02:01:53.251Z,12.30
2022-09-15T02:04:47.568Z,12.30
2022-09-15T02:07:44.858Z,12.30
2022-09-15T02:10:37.956Z,12.40
2022-09-15T02:13:38.100Z,12.50
2022-09-15T02:16:30.855Z,12.50
2022-09-15T02:19:21.665Z,12.60
2022-09-15T02:22:15.706Z,12.60
2022-09-15T02:25:07.264Z,12.60
2022-09-15T02:27:59.882Z,12.60
2022-09-15T02:30:49.948Z,12.50
2022-09-15T02:33:41.155Z,12.60
2022-09-15T02:36:31.576Z,12.60
2022-09-15T02:39:25.572Z,12.60
2022-09-15T02:42:13.789Z,12.70
2022-09-15T02:45:02.728Z,12.80
2022-09-15T02:47:51.142Z,12.70
2022-09-15T02:50:41.178Z,12.80
2022-09-15T02:53:29.203Z,12.50
2022-09-15T02:56:18.643Z,12.50
2022-09-15T02:59:06.696Z,12.50
2022-09-15T03:01:54.765Z,12.30
2022-09-15T03:04:43.348Z,12.20
2022-09-15T03:07:31.959Z,12.00
2022-09-15T03:10:20.726Z,11.90
2022-09-15T03:13:10.105Z,11.90
2022-09-15T03:15:58.157Z,11.80
2022-09-15T03:18:46.724Z,11.70
2022-09-15T03:21:35.742Z,11.70
2022-09-15T03:24:23.984Z,11.50
2022-09-15T03:27:11.984Z,11.60
2022-09-15T03:30:01.850Z,11.50
2022-09-15T03:32:50.063Z,11.50
2022-09-15T03:35:38.096Z,11.40
2022-09-15T03:38:26.776Z,11.40
2022-09-15T03:41:14.806Z,11.40
2022-09-15T03:44:03.229Z,11.40
2022-09-15T03:46:52.997Z,11.40
2022-09-15T03:49:41.001Z,11.40
2022-09-15T03:52:32.200Z,11.40
2022-09-15T03:55:20.235Z,11.40
2022-09-15T03:58:08.245Z,11.40
2022-09-15T04:00:57.045Z,11.40
2022-09-15T04:03:50.860Z,11.30
2022-09-15T04:06:39.912Z,11.30
2022-09-15T04:09:28.384Z,11.30
2022-09-15T04:12:16.753Z,11.30
2022-09-15T04:15:05.450Z,11.30
2022-09-15T04:17:53.870Z,11.30
2022-09-15T04:20:43.194Z,11.30
2022-09-15T04:23:31.197Z,11.30
2022-09-15T04:26:23.802Z,11.30
2022-09-15T04:29:14.646Z,11.20
2022-09-15T04:32:03.246Z,11.20
2022-09-15T04:34:51.242Z,11.20
2022-09-15T04:37:40.557Z,11.20
2022-09-15T04:40:28.668Z,11.10
2022-09-15T04:43:16.745Z,11.20
2022-09-15T04:46:05.377Z,11.20
2022-09-15T04:48:53.985Z,11.20
2022-09-15T04:51:42.209Z,11.20
2022-09-15T04:54:31.783Z,11.20
2022-09-15T04:57:19.801Z,11.20
2022-09-15T05:00:09.173Z,11.30
2022-09-15T05:02:57.200Z,11.30
2022-09-15T05:05:45.229Z,11.30
2022-09-15T05:08:33.251Z,11.40
2022-09-15T05:11:23.022Z,11.50
2022-09-15T05:14:11.735Z,11.50
2022-09-15T05:16:59.741Z,11.50
2022-09-15T05:19:47.812Z,11.50
2022-09-15T05:22:40.946Z,11.40
2022-09-15T05:25:30.327Z,11.50
2022-09-15T05:28:19.759Z,11.50
2022-09-15T05:31:10.238Z,11.50
2022-09-15T05:33:58.649Z,11.70
2022-09-15T05:36:46.713Z,11.70
2022-09-15T05:39:34.993Z,11.80
2022-09-15T05:42:22.984Z,11.80
2022-09-15T05:45:12.514Z,11.90
2022-09-15T05:48:00.493Z,11.90
2022-09-15T05:50:51.101Z,12.00
2022-09-15T05:53:40.124Z,12.10
2022-09-15T05:56:28.236Z,12.30
2022-09-15T05:59:16.345Z,12.50
2022-09-15T06:02:06.207Z,12.70
2022-09-15T06:04:54.411Z,12.80
2022-09-15T06:07:42.625Z,12.90
2022-09-15T06:10:31.040Z,13.00
2022-09-15T06:13:19.130Z,13.20
2022-09-15T06:16:09.390Z,13.10
2022-09-15T06:19:00.681Z,13.10
2022-09-15T06:21:48.958Z,13.10
2022-09-15T06:24:37.033Z,12.80
2022-09-15T06:27:25.103Z,12.90
2022-09-15T06:30:13.931Z,13.50
2022-09-15T06:33:02.037Z,13.60
2022-09-15T06:35:51.353Z,13.80
2022-09-15T06:38:39.928Z,13.90
2022-09-15T06:41:35.346Z,14.10
2022-09-15T06:44:35.574Z,14.10
2022-09-15T06:50:12.117Z,14.40
2022-09-15T06:53:01.426Z,14.50
2022-09-15T06:55:49.450Z,14.50
2022-09-15T06:58:39.306Z,14.50
2022-09-15T07:01:29.508Z,14.40
2022-09-15T07:04:17.503Z,14.50
2022-09-15T07:07:05.650Z,14.60
2022-09-15T07:09:55.675Z,14.60
2022-09-15T07:12:43.687Z,14.80
2022-09-15T07:15:31.985Z,14.90
2022-09-15T07:18:20.010Z,15.10
2022-09-15T07:21:11.402Z,15.20
2022-09-15T07:24:02.621Z,15.10
2022-09-15T07:26:54.642Z,15.10
2022-09-15T07:29:42.638Z,15.00
2022-09-15T07:32:30.668Z,15.10
2022-09-15T07:35:18.737Z,15.10
2022-09-15T07:38:06.941Z,15.20
2022-09-15T07:40:55.129Z,15.30
2022-09-15T07:43:47.972Z,15.40
2022-09-15T07:46:36.406Z,15.40
2022-09-15T07:49:24.406Z,15.50
2022-09-15T07:52:12.615Z,15.60
2022-09-15T07:55:00.605Z,15.70
2022-09-15T07:57:48.590Z,15.70
2022-09-15T08:00:38.735Z,15.70
2022-09-15T08:03:26.724Z,15.80
2022-09-15T08:06:15.624Z,15.90
2022-09-15T08:09:04.259Z,15.90
2022-09-15T08:11:52.560Z,16.00
2022-09-15T08:14:40.546Z,16.20
2022-09-15T08:17:29.928Z,16.30
2022-09-15T08:20:18.882Z,16.50
2022-09-15T08:23:06.950Z,16.40
2022-09-15T08:25:54.949Z,16.40
2022-09-15T08:28:43.743Z,16.60
2022-09-15T08:31:31.794Z,16.70
2022-09-15T08:34:21.582Z,16.80
2022-09-15T08:37:09.650Z,16.70
2022-09-15T08:39:57.820Z,16.70
2022-09-15T08:42:47.670Z,16.50
2022-09-15T08:45:45.132Z,16.20
2022-09-15T08:48:40.637Z,16.20
2022-09-15T08:51:37.597Z,16.40
2022-09-15T08:54:28.187Z,16.60
2022-09-15T08:57:21.856Z,16.70
2022-09-15T09:00:15.430Z,16.60
2022-09-15T09:03:29.011Z,16.70
2022-09-15T09:06:25.066Z,16.60
2022-09-15T09:09:20.931Z,16.80
2022-09-15T09:12:42.049Z,17.20
2022-09-15T09:15:39.554Z,17.50
2022-09-15T09:18:47.041Z,17.30
2022-09-15T09:21:38.616Z,17.40
2022-09-15T09:24:36.780Z,17.40
2022-09-15T09:27:29.569Z,17.50
2022-09-15T09:30:20.810Z,17.70
2022-09-15T09:33:26.279Z,17.70
2022-09-15T09:36:14.686Z,17.60
2022-09-15T09:39:03.461Z,17.50
2022-09-15T09:41:53.138Z,17.40
2022-09-15T09:44:41.997Z,17.40
2022-09-15T09:47:31.195Z,17.30
2022-09-15T09:50:35.689Z,17.30
2022-09-15T09:53:31.905Z,17.60
2022-09-15T09:56:25.244Z,18.00
2022-09-15T09:59:40.039Z,18.30
2022-09-15T10:02:28.753Z,18.40
2022-09-15T10:05:21.347Z,18.30
2022-09-15T10:08:16.824Z,18.30
2022-09-15T10:11:06.714Z,18.30
2022-09-15T10:13:56.453Z,18.10
2022-09-15T10:16:45.942Z,18.00
2022-09-15T10:19:38.877Z,17.80
2022-09-15T10:22:30.690Z,17.70
2022-09-15T10:25:49.693Z,17.70
2022-09-15T10:28:42.958Z,17.80
2022-09-15T10:31:34.068Z,18.10
2022-09-15T10:34:30.425Z,18.30
2022-09-15T10:37:28.152Z,18.70
2022-09-15T10:40:34.013Z,18.80
2022-09-15T10:43:34.948Z,19.20
2022-09-15T10:46:28.549Z,19.90
2022-09-15T10:49:30.580Z,20.10
2022-09-15T10:52:27.944Z,20.30
2022-09-15T10:55:51.229Z,20.10
2022-09-15T10:58:55.722Z,19.80
2022-09-15T11:02:04.036Z,19.20
2022-09-15T11:05:12.645Z,19.00
2022-09-15T11:08:25.200Z,18.70
2022-09-15T11:11:21.909Z,18.60
2022-09-15T11:14:21.298Z,18.70
2022-09-15T11:17:33.787Z,18.80
2022-09-15T11:20:56.872Z,19.00
2022-09-15T11:23:51.046Z,19.00
2022-09-15T11:26:45.298Z,18.90
2022-09-15T11:29:44.404Z,18.60
2022-09-15T11:32:39.373Z,18.70
2022-09-15T11:35:45.545Z,20.40
2022-09-15T11:38:47.884Z,19.00
2022-09-15T11:41:40.688Z,19.30
2022-09-15T11:44:32.318Z,19.40
2022-09-15T11:47:28.922Z,19.80
2022-09-15T11:50:21.394Z,19.60
2022-09-15T11:53:16.733Z,17.90
2022-09-15T11:56:14.092Z,19.60
2022-09-15T11:59:11.339Z,19.30
2022-09-15T12:02:10.726Z,18.90
2022-09-15T12:05:07.196Z,18.80
2022-09-15T12:07:59.478Z,18.60
2022-09-15T12:10:52.221Z,18.70
2022-09-15T12:13:41.914Z,18.80
2022-09-15T12:16:30.904Z,19.00
2022-09-15T12:19:26.494Z,19.30
2022-09-15T12:22:20.034Z,19.50
2022-09-15T12:25:14.740Z,19.80
2022-09-15T12:28:36.302Z,19.60
2022-09-15T12:31:35.010Z,19.20
2022-09-15T12:34:37.393Z,18.80
2022-09-15T12:37:26.689Z,18.70
2022-09-15T12:40:36.509Z,18.70
2022-09-15T12:43:25.649Z,18.60
2022-09-15T12:46:19.445Z,18.60
2022-09-15T12:49:18.878Z,18.70
2022-09-15T12:52:08.318Z,18.50
2022-09-15T12:55:00.726Z,18.50
2022-09-15T12:57:55.269Z,18.80
2022-09-15T13:01:07.236Z,19.20
2022-09-15T13:04:23.739Z,19.00
2022-09-15T13:07:38.550Z,19.40
2022-09-15T13:10:31.376Z,19.90
2022-09-15T13:13:32.680Z,20.70
2022-09-15T13:16:30.143Z,22.20
2022-09-15T13:19:24.316Z,22.90
2022-09-15T13:22:23.315Z,23.00
2022-09-15T13:25:17.484Z,22.70
2022-09-15T13:28:05.775Z,22.60
2022-09-15T13:31:26.949Z,22.10
2022-09-15T13:35:06.361Z,21.30
2022-09-15T13:38:24.969Z,21.10
2022-09-15T13:41:46.684Z,21.00
2022-09-15T13:45:05.015Z,20.90
2022-09-15T13:48:09.888Z,21.20
2022-09-15T13:51:01.749Z,22.30
2022-09-15T13:53:53.429Z,23.20
2022-09-15T13:56:42.146Z,22.40
2022-09-15T13:59:32.972Z,21.70
2022-09-15T14:02:21.263Z,20.90
2022-09-15T14:05:10.305Z,20.30
2022-09-15T14:08:02.726Z,20.00
2022-09-15T14:10:55.457Z,19.70
2022-09-15T14:13:47.235Z,19.50
2022-09-15T14:16:36.830Z,19.20
2022-09-15T14:19:33.991Z,18.90
2022-09-15T14:22:28.198Z,19.00
2022-09-15T14:25:18.489Z,19.00
2022-09-15T14:28:07.900Z,19.10
2022-09-15T14:30:56.135Z,19.40
2022-09-15T14:33:46.984Z,19.60
2022-09-15T14:36:35.971Z,19.70
2022-09-15T14:39:24.115Z,20.00
2022-09-15T14:42:21.619Z,19.80
2022-09-15T14:48:27.937Z,20.30
2022-09-15T14:51:21.975Z,20.80
2022-09-15T14:54:15.647Z,20.90
2022-09-15T14:57:06.432Z,21.00
2022-09-15T15:00:01.434Z,20.60
2022-09-15T15:03:01.733Z,20.60
2022-09-15T15:06:02.603Z,20.40
2022-09-15T15:09:00.532Z,19.80
2022-09-15T15:11:50.892Z,19.40
2022-09-15T15:14:39.014Z,19.00
2022-09-15T15:17:34.209Z,19.00
2022-09-15T15:20:24.157Z,18.80
2022-09-15T15:23:16.468Z,18.80
2022-09-15T15:26:27.719Z,18.80
2022-09-15T15:29:43.012Z,18.50
2022-09-15T15:32:32.677Z,18.10
2022-09-15T15:35:21.678Z,18.10
2022-09-15T15:38:16.508Z,17.80
2022-09-15T15:41:07.857Z,17.80
2022-09-15T15:43:58.316Z,17.70
2022-09-15T15:46:52.348Z,17.60
2022-09-15T15:50:02.168Z,17.20
2022-09-15T15:52:50.769Z,16.50
2022-09-15T15:55:41.088Z,15.90
2022-09-15T15:58:29.381Z,15.60
2022-09-15T16:01:17.490Z,15.50
2022-09-15T16:04:05.798Z,15.50
2022-09-15T16:06:55.180Z,15.70
2022-09-15T16:09:43.888Z,16.20
2022-09-15T16:12:34.718Z,16.40
2022-09-15T16:15:23.874Z,16.50
2022-09-15T16:18:12.829Z,16.60
2022-09-15T16:21:00.858Z,16.50
2022-09-15T16:23:50.221Z,16.40
2022-09-15T16:26:39.384Z,16.40
2022-09-15T16:29:31.286Z,16.40
2022-09-15T16:32:21.310Z,16.30
2022-09-15T16:35:24.055Z,16.20
2022-09-15T16:38:12.349Z,16.30
2022-09-15T16:41:02.023Z,16.10
2022-09-15T16:43:50.715Z,16.00
2022-09-15T16:46:38.760Z,15.90
2022-09-15T16:49:27.245Z,15.90
2022-09-15T16:52:16.616Z,15.70
2022-09-15T16:55:16.422Z,15.80
2022-09-15T16:58:07.160Z,15.60
2022-09-15T17:00:55.973Z,15.40
2022-09-15T17:03:44.382Z,15.30
2022-09-15T17:06:32.472Z,15.00
2022-09-15T17:09:20.475Z,14.80
2022-09-15T17:12:10.132Z,14.70
2022-09-15T17:14:59.626Z,14.60
2022-09-15T17:17:47.673Z,14.60
2022-09-15T17:20:39.168Z,14.50
2022-09-15T17:23:31.161Z,14.50
2022-09-15T17:26:21.242Z,14.40
2022-09-15T17:29:09.490Z,14.30
2022-09-15T17:31:58.836Z,14.10
2022-09-15T17:34:47.210Z,14.10
2022-09-15T17:37:35.327Z,13.90
2022-09-15T17:40:23.480Z,13.80
2022-09-15T17:43:16.778Z,13.80
2022-09-15T17:46:05.110Z,13.90
2022-09-15T17:48:54.628Z,13.80
2022-09-15T17:51:42.741Z,13.90
2022-09-15T17:54:31.313Z,13.90
2022-09-15T17:57:19.366Z,13.90
2022-09-15T18:00:09.643Z,13.90
2022-09-15T18:02:59.484Z,13.90
2022-09-15T18:05:49.424Z,13.90
2022-09-15T18:08:37.773Z,13.90
2022-09-15T18:11:27.803Z,13.90
2022-09-15T18:14:15.797Z,13.80
2022-09-15T18:17:03.834Z,13.80
2022-09-15T18:19:51.941Z,13.70
2022-09-15T18:22:42.086Z,13.60
2022-09-15T18:25:32.584Z,13.50
2022-09-15T18:28:20.732Z,13.40
2022-09-15T18:31:10.502Z,13.30
2022-09-15T18:33:58.531Z,13.20
2022-09-15T18:36:46.963Z,13.20
2022-09-15T18:39:37.293Z,13.20
2022-09-15T18:42:27.350Z,13.20
2022-09-15T18:45:19.698Z,13.10
2022-09-15T18:48:12.014Z,13.20
2022-09-15T18:51:01.327Z,13.30
2022-09-15T18:53:53.390Z,13.40
2022-09-15T18:56:43.434Z,13.40
2022-09-15T18:59:31.417Z,13.40
2022-09-15T19:02:19.492Z,13.50
2022-09-15T19:05:11.186Z,13.50
2022-09-15T19:07:59.263Z,13.50
2022-09-15T19:10:47.884Z,13.60
2022-09-15T19:13:37.301Z,13.60
2022-09-15T19:16:34.637Z,13.50
2022-09-15T19:19:28.488Z,13.60
2022-09-15T19:22:16.575Z,13.60
2022-09-15T19:25:06.662Z,13.60
2022-09-15T19:27:54.765Z,13.60
2022-09-15T19:30:44.620Z,13.60
2022-09-15T19:33:33.022Z,13.50
2022-09-15T19:36:29.134Z,13.50
2022-09-15T19:39:17.677Z,13.50
2022-09-15T19:42:06.248Z,13.50
2022-09-15T19:44:54.419Z,13.60
2022-09-15T19:47:43.770Z,13.60
2022-09-15T19:50:31.800Z,13.60
2022-09-15T19:53:19.892Z,13.60
2022-09-15T19:56:08.844Z,13.60
2022-09-15T19:58:58.888Z,13.60
2022-09-15T20:01:47.517Z,13.50
2022-09-15T20:04:39.109Z,13.40
2022-09-15T20:07:27.578Z,13.30
2022-09-15T20:10:15.767Z,13.30
2022-09-15T20:13:03.836Z,13.20
2022-09-15T20:15:58.739Z,13.10
2022-09-15T20:18:48.293Z,13.00
2022-09-15T20:21:49.992Z,13.00
2022-09-15T20:24:38.702Z,12.90
2022-09-15T20:27:26.733Z,12.90
2022-09-15T20:30:15.016Z,12.90
2022-09-15T20:33:03.033Z,12.80
2022-09-15T20:35:51.030Z,12.80
2022-09-15T20:38:41.190Z,12.80
2022-09-15T20:41:29.881Z,12.80
2022-09-15T20:44:17.913Z,12.90
2022-09-15T20:47:06.444Z,12.90
2022-09-15T20:49:54.469Z,12.80
2022-09-15T20:52:42.470Z,12.80
2022-09-15T20:55:31.837Z,12.70
2022-09-15T20:58:19.860Z,12.70
2022-09-15T21:01:09.568Z,12.70
2022-09-15T21:03:57.676Z,12.70
2022-09-15T21:06:46.087Z,12.80
2022-09-15T21:09:34.182Z,12.80
2022-09-15T21:12:23.617Z,12.90
2022-09-15T21:15:12.109Z,12.90
2022-09-15T21:18:00.327Z,12.90
2022-09-15T21:20:54.418Z,12.90
2022-09-15T21:23:44.242Z,12.90
2022-09-15T21:26:33.494Z,13.00
2022-09-15T21:29:23.341Z,13.00
2022-09-15T21:32:11.351Z,13.00
2022-09-15T21:35:00.106Z,13.10
2022-09-15T21:37:48.108Z,13.00
2022-09-15T21:40:36.815Z,13.00
2022-09-15T21:43:24.871Z,13.00
2022-09-15T21:46:16.791Z,13.00
2022-09-15T21:49:04.897Z,12.90
2022-09-15T21:51:52.955Z,12.80
2022-09-15T21:54:40.938Z,12.70
2022-09-15T21:57:28.949Z,12.60
2022-09-15T22:00:17.318Z,12.50
2022-09-15T22:03:06.865Z,12.50
2022-09-15T22:05:55.847Z,12.50
2022-09-15T22:08:45.106Z,12.50
2022-09-15T22:11:33.569Z,12.60
2022-09-15T22:14:22.019Z,12.70
2022-09-15T22:17:09.990Z,12.70
2022-09-15T22:19:59.518Z,12.70
2022-09-15T22:22:47.528Z,12.60
2022-09-15T22:25:36.049Z,12.60
2022-09-15T22:28:24.024Z,12.60
2022-09-15T22:31:13.782Z,12.60
2022-09-15T22:34:01.884Z,12.70
2022-09-15T22:36:51.187Z,12.60
2022-09-15T22:39:58.101Z,12.70
2022-09-15T22:42:47.547Z,12.50
2022-09-15T22:45:35.639Z,12.70
2022-09-15T22:48:23.662Z,12.60
2022-09-15T22:51:12.197Z,12.50
2022-09-15T22:54:03.405Z,12.50
2022-09-15T22:56:51.369Z,12.30
2022-09-15T22:59:39.339Z,12.20
2022-09-15T23:02:28.056Z,12.10
2022-09-15T23:08:04.780Z,12.10
2022-09-15T23:10:54.113Z,12.10
2022-09-15T23:13:42.638Z,12.00
2022-09-15T23:16:31.477Z,11.90
2022-09-15T23:19:19.627Z,11.90
2022-09-15T23:22:07.628Z,11.90
2022-09-15T23:24:55.642Z,11.90
2022-09-15T23:27:44.904Z,11.90
2022-09-15T23:30:32.896Z,11.70
2022-09-15T23:33:21.324Z,11.60
2022-09-15T23:36:11.600Z,11.70
2022-09-15T23:38:59.611Z,11.60
2022-09-15T23:41:47.576Z,11.60
2022-09-15T23:44:36.856Z,11.50
2022-09-15T23:47:24.885Z,11.50
2022-09-15T23:50:12.872Z,11.40
2022-09-15T23:53:00.910Z,11.40
2022-09-15T23:55:48.976Z,11.40
2022-09-15T23:58:37.171Z,11.30
